createdAt,value
2023-05-24T00:01:20.855Z,65.4
2023-05-24T00:03:47.472Z,65.2
2023-05-24T00:06:14.104Z,65.5
2023-05-24T00:08:40.713Z,65.4
2023-05-24T00:11:07.341Z,65.3
2023-05-24T00:16:00.573Z,66.2
2023-05-24T00:18:27.208Z,66.4
2023-05-24T00:20:53.844Z,65.1
2023-05-24T00:23:20.464Z,66
2023-05-24T00:25:47.066Z,64.6
2023-05-24T00:28:13.728Z,64.4
2023-05-24T00:30:40.315Z,63.4
2023-05-24T00:33:05.459Z,63.5
2023-05-24T00:35:32.057Z,63.3
2023-05-24T00:37:58.698Z,63.1
2023-05-24T00:40:25.311Z,63.5
2023-05-24T00:42:51.931Z,63.9
2023-05-24T00:45:18.624Z,63.8
2023-05-24T00:47:45.186Z,64
2023-05-24T00:50:11.800Z,64
2023-05-24T00:52:36.945Z,64.1
2023-05-24T00:55:03.594Z,63.5
2023-05-24T00:57:30.179Z,64.6
2023-05-24T00:59:56.794Z,65.2
2023-05-24T01:02:21.931Z,64.5
2023-05-24T01:04:48.554Z,64.6
2023-05-24T01:07:15.176Z,64.9
2023-05-24T01:09:41.791Z,65.3
2023-05-24T01:12:08.419Z,65
2023-05-24T01:14:35.056Z,65.4
2023-05-24T01:17:01.667Z,65.6
2023-05-24T01:19:28.292Z,65.4
2023-05-24T01:21:54.910Z,66.2
2023-05-24T01:24:21.535Z,66.3
2023-05-24T01:26:48.162Z,67.7
2023-05-24T01:29:14.764Z,67.2
2023-05-24T01:31:41.419Z,67.7
2023-05-24T01:34:08.029Z,67
2023-05-24T01:36:33.147Z,67.6
2023-05-24T01:38:59.762Z,68.3
2023-05-24T01:41:26.389Z,67.7
2023-05-24T01:43:53.017Z,68.2
2023-05-24T01:46:18.144Z,68.5
2023-05-24T01:48:44.765Z,69.4
2023-05-24T01:51:11.401Z,69.1
2023-05-24T01:53:38.005Z,69.7
2023-05-24T01:56:04.627Z,69.5
2023-05-24T01:58:31.276Z,70.1
2023-05-24T02:00:57.869Z,71.8
2023-05-24T02:03:24.489Z,70.9
2023-05-24T02:05:51.119Z,70.8
2023-05-24T02:08:17.732Z,70.8
2023-05-24T02:10:44.359Z,69.6
2023-05-24T02:13:10.974Z,70.4
2023-05-24T02:15:37.611Z,70.6
2023-05-24T02:18:02.717Z,70
2023-05-24T02:22:55.980Z,69.6
2023-05-24T02:25:22.589Z,70.2
2023-05-24T02:27:49.216Z,70.1
2023-05-24T02:30:15.836Z,68.8
2023-05-24T02:32:42.465Z,69.5
2023-05-24T02:35:09.069Z,69.1
2023-05-24T02:37:35.705Z,68.2
2023-05-24T02:40:02.336Z,68
2023-05-24T02:42:28.943Z,67.7
2023-05-24T02:44:55.579Z,67.9
2023-05-24T02:47:22.198Z,68.1
2023-05-24T02:49:48.831Z,68.7
2023-05-24T02:52:13.940Z,68.8
2023-05-24T02:54:40.584Z,69
2023-05-24T02:57:07.193Z,69.6
2023-05-24T02:59:33.832Z,69.5
2023-05-24T03:02:00.447Z,70
2023-05-24T03:06:53.690Z,70.6
2023-05-24T03:09:20.301Z,70.8
2023-05-24T03:11:46.936Z,70.4
2023-05-24T03:14:13.554Z,70.8
2023-05-24T03:16:40.177Z,70.8
2023-05-24T03:19:06.788Z,71.1
2023-05-24T03:21:33.418Z,69.8
2023-05-24T03:23:58.551Z,70.4
2023-05-24T03:26:25.172Z,70.7
2023-05-24T03:28:51.789Z,70.4
2023-05-24T03:31:18.417Z,70.2
2023-05-24T03:33:45.030Z,70.2
2023-05-24T03:36:11.681Z,69.7
2023-05-24T03:38:38.302Z,69.5
2023-05-24T03:41:04.901Z,69.3
2023-05-24T03:43:31.533Z,70.2
2023-05-24T03:45:58.170Z,69.5
2023-05-24T03:48:24.779Z,70.6
2023-05-24T03:50:51.398Z,70.1
2023-05-24T03:53:18.021Z,69.9
2023-05-24T03:55:43.146Z,70.8
2023-05-24T03:58:09.751Z,70.8
2023-05-24T04:00:36.383Z,71
2023-05-24T04:03:03.027Z,71.4
2023-05-24T04:05:29.619Z,71.1
2023-05-24T04:07:56.258Z,70.5
2023-05-24T04:10:22.872Z,72.1
2023-05-24T04:12:49.503Z,70.6
2023-05-24T04:15:16.118Z,71.7
2023-05-24T04:20:09.360Z,72.8
2023-05-24T04:22:35.998Z,72.3
2023-05-24T04:25:02.682Z,72
2023-05-24T04:27:27.741Z,73.2
2023-05-24T04:29:54.368Z,72.7
2023-05-24T04:32:21.003Z,73
2023-05-24T04:34:47.630Z,73.3
2023-05-24T04:37:14.223Z,72.8
2023-05-24T04:39:40.910Z,72.5
2023-05-24T04:42:07.480Z,73.7
2023-05-24T04:44:34.121Z,72.8
2023-05-24T04:47:00.732Z,73
2023-05-24T04:49:27.347Z,73.7
2023-05-24T04:51:53.993Z,73.4
2023-05-24T04:54:20.589Z,72.8
2023-05-24T04:56:47.211Z,70.9
2023-05-24T04:59:12.368Z,71.9
2023-05-24T05:01:38.981Z,73
2023-05-24T05:04:05.576Z,72.8
2023-05-24T05:06:32.239Z,73
2023-05-24T05:08:58.833Z,72.2
2023-05-24T05:11:25.472Z,72
2023-05-24T05:13:52.090Z,71.3
2023-05-24T05:16:18.708Z,72.3
2023-05-24T05:18:45.318Z,72.1
2023-05-24T05:23:38.572Z,71.1
2023-05-24T05:26:05.178Z,72
2023-05-24T05:28:31.800Z,70.6
2023-05-24T05:30:56.943Z,72.6
2023-05-24T05:33:23.567Z,71.3
2023-05-24T05:35:50.219Z,71.2
2023-05-24T05:38:16.849Z,70.2
2023-05-24T05:40:43.422Z,70.2
2023-05-24T05:43:10.050Z,71.6
2023-05-24T05:45:36.727Z,69.4
2023-05-24T05:48:03.292Z,70.6
2023-05-24T05:50:29.973Z,69.9
2023-05-24T05:52:56.550Z,70.1
2023-05-24T05:55:23.150Z,69.3
2023-05-24T05:57:49.856Z,69.4
2023-05-24T06:00:16.425Z,69
2023-05-24T06:02:41.654Z,68.7
2023-05-24T06:05:08.188Z,69.3
2023-05-24T06:07:34.840Z,68.1
2023-05-24T06:10:01.557Z,69
2023-05-24T06:12:28.141Z,67.9
2023-05-24T06:14:54.729Z,68.1
2023-05-24T06:17:21.421Z,66.8
2023-05-24T06:19:47.946Z,68.2
2023-05-24T06:22:14.651Z,67.7
2023-05-24T06:24:41.181Z,65.6
2023-05-24T06:27:07.768Z,66.4
2023-05-24T06:32:00.993Z,65.7
2023-05-24T06:34:26.128Z,65.1
2023-05-24T06:36:52.751Z,64.8
2023-05-24T06:39:19.373Z,65.3
2023-05-24T06:41:46.008Z,64.4
2023-05-24T06:44:12.621Z,65.8
2023-05-24T06:46:39.247Z,64.2
2023-05-24T06:49:05.863Z,65
2023-05-24T06:51:32.488Z,64.8
2023-05-24T06:53:59.153Z,64.3
2023-05-24T06:56:25.775Z,64.3
2023-05-24T06:58:52.354Z,64.4
2023-05-24T07:01:18.985Z,64.5
2023-05-24T07:03:45.591Z,64.3
2023-05-24T07:06:10.745Z,66.1
2023-05-24T07:08:37.356Z,65.2
2023-05-24T07:11:03.975Z,66.4
2023-05-24T07:13:30.606Z,64.7
2023-05-24T07:15:57.218Z,64.8
2023-05-24T07:20:50.564Z,65.4
2023-05-24T07:23:17.083Z,64.1
2023-05-24T07:25:43.716Z,64
2023-05-24T07:28:10.360Z,65.2
2023-05-24T07:30:36.963Z,65.8
2023-05-24T07:33:03.586Z,65.7
2023-05-24T07:35:30.194Z,65.5
2023-05-24T07:37:55.334Z,63.9
2023-05-24T07:40:22.144Z,64.2
2023-05-24T07:42:48.573Z,63.6
2023-05-24T07:45:15.192Z,63.8
2023-05-24T07:47:41.814Z,63
2023-05-24T07:50:08.452Z,63.1
2023-05-24T07:52:35.062Z,64.2
2023-05-24T07:55:01.694Z,63.5
2023-05-24T07:57:28.337Z,64.2
2023-05-24T07:59:54.927Z,63.5
2023-05-24T08:02:21.556Z,63.7
2023-05-24T08:04:48.179Z,64.1
2023-05-24T08:07:14.839Z,64.3
2023-05-24T08:09:41.053Z,64.9
2023-05-24T08:12:07.674Z,65.3
2023-05-24T08:14:34.343Z,64.4
2023-05-24T08:17:00.967Z,63.4
2023-05-24T08:19:27.513Z,62.2
2023-05-24T08:21:54.196Z,62.1
2023-05-24T08:24:20.771Z,61.8
2023-05-24T08:26:47.504Z,61.6
2023-05-24T08:29:14.041Z,61.3
2023-05-24T08:31:40.648Z,60.6
2023-05-24T08:34:07.253Z,61.8
2023-05-24T08:36:33.876Z,61
2023-05-24T08:39:00.496Z,59.6
2023-05-24T08:41:25.643Z,58.4
2023-05-24T08:43:52.277Z,57.7
2023-05-24T08:48:45.512Z,58.6
2023-05-24T08:51:12.139Z,57.5
2023-05-24T08:53:38.765Z,55.1
2023-05-24T08:56:05.377Z,55.9
2023-05-24T08:58:32.014Z,54.1
2023-05-24T09:00:58.705Z,55.9
2023-05-24T09:03:25.354Z,56.8
2023-05-24T09:05:51.848Z,55.3
2023-05-24T09:08:18.478Z,56.7
2023-05-24T09:10:45.122Z,55.6
2023-05-24T09:13:11.385Z,56.2
2023-05-24T09:15:37.961Z,57.5
2023-05-24T09:18:04.573Z,57.1
2023-05-24T09:20:31.261Z,56.2
2023-05-24T09:22:57.822Z,57.8
2023-05-24T09:25:24.448Z,58.9
2023-05-24T09:27:51.060Z,59
2023-05-24T09:30:17.683Z,59
2023-05-24T09:32:44.414Z,59.8
2023-05-24T09:35:10.948Z,59.2
2023-05-24T09:37:37.603Z,60.5
2023-05-24T09:40:04.168Z,62
2023-05-24T09:42:30.903Z,60.6
2023-05-24T09:44:55.970Z,59.7
2023-05-24T09:47:22.629Z,58.1
2023-05-24T09:49:49.153Z,60
2023-05-24T09:52:15.957Z,59.5
2023-05-24T09:54:42.509Z,58.5
2023-05-24T09:57:08.790Z,59
2023-05-24T09:59:35.306Z,60.5
2023-05-24T10:02:01.940Z,60.7
2023-05-24T10:04:28.610Z,59.6
2023-05-24T10:06:55.158Z,60.3
2023-05-24T10:09:21.897Z,59.9
2023-05-24T10:11:48.472Z,59.2
2023-05-24T10:14:14.995Z,58.6
2023-05-24T10:16:41.804Z,58.7
2023-05-24T10:19:08.472Z,59.2
2023-05-24T10:21:34.993Z,58.5
2023-05-24T10:24:01.547Z,58.5
2023-05-24T10:26:28.285Z,58.8
2023-05-24T10:28:53.221Z,59.9
2023-05-24T10:31:20.065Z,59.2
2023-05-24T10:33:45.525Z,59.7
2023-05-24T10:36:12.272Z,59.3
2023-05-24T10:38:38.901Z,59.4
2023-05-24T10:41:05.455Z,60.3
2023-05-24T10:43:32.013Z,60.1
2023-05-24T10:45:58.642Z,60.3
2023-05-24T10:48:25.254Z,61.7
2023-05-24T10:50:51.887Z,60.5
2023-05-24T10:53:18.520Z,61.3
2023-05-24T10:55:45.132Z,61.8
2023-05-24T10:58:11.750Z,61.4
2023-05-24T11:00:37.971Z,61.6
2023-05-24T11:03:04.598Z,62.7
2023-05-24T11:05:31.235Z,60
2023-05-24T11:07:57.843Z,61.1
2023-05-24T11:10:24.486Z,60.5
2023-05-24T11:12:51.093Z,59.2
2023-05-24T11:15:17.716Z,59.1
2023-05-24T11:17:44.332Z,59.2
2023-05-24T11:20:10.984Z,60.8
2023-05-24T11:22:37.588Z,59.1
2023-05-24T11:25:04.204Z,58.6
2023-05-24T11:29:57.465Z,58.1
2023-05-24T11:32:22.570Z,56
2023-05-24T11:34:49.208Z,56.3
2023-05-24T11:37:15.830Z,56.6
2023-05-24T11:39:42.438Z,56.9
2023-05-24T11:42:09.058Z,54.1
2023-05-24T11:44:35.695Z,53
2023-05-24T11:47:02.306Z,54.7
2023-05-24T11:49:28.939Z,53.4
2023-05-24T11:51:55.560Z,53
2023-05-24T11:54:22.189Z,53.7
2023-05-24T11:56:48.810Z,55.1
2023-05-24T11:59:15.422Z,54.1
2023-05-24T12:01:42.055Z,54.9
2023-05-24T12:04:08.666Z,54.5
2023-05-24T12:06:35.285Z,55.1
2023-05-24T12:09:01.527Z,53.7
2023-05-24T12:11:28.137Z,52.8
2023-05-24T12:13:54.768Z,51.1
2023-05-24T12:16:21.384Z,50.6
2023-05-24T12:18:48.023Z,49.2
2023-05-24T12:21:14.640Z,48.7
2023-05-24T12:23:41.252Z,46.6
2023-05-24T12:26:07.904Z,47.3
2023-05-24T12:28:34.498Z,46.7
2023-05-24T12:31:01.135Z,45.1
2023-05-24T12:33:27.750Z,46.1
2023-05-24T12:35:54.390Z,43.7
2023-05-24T12:38:20.999Z,45.1
2023-05-24T12:40:46.122Z,47.4
2023-05-24T12:43:12.742Z,48.3
2023-05-24T12:45:39.364Z,44.4
2023-05-24T12:48:05.995Z,46.6
2023-05-24T12:52:59.230Z,43
2023-05-24T12:55:25.858Z,42.2
2023-05-24T13:00:19.099Z,42.7
2023-05-24T13:02:45.723Z,44.9
2023-05-24T13:05:12.348Z,42.7
2023-05-24T13:07:38.974Z,45
2023-05-24T13:10:05.602Z,43.6
2023-05-24T13:12:31.818Z,39.6
2023-05-24T13:14:58.466Z,43.2
2023-05-24T13:17:25.067Z,43.1
2023-05-24T13:19:51.687Z,42.8
2023-05-24T13:22:18.311Z,46.2
2023-05-24T13:24:44.928Z,41
2023-05-24T13:27:11.561Z,40.9
2023-05-24T13:29:38.191Z,39.1
2023-05-24T13:32:04.808Z,40.9
2023-05-24T13:36:58.129Z,42.1
2023-05-24T13:39:23.418Z,38.2
2023-05-24T13:41:49.420Z,35.9
2023-05-24T13:44:16.129Z,38.6
2023-05-24T13:46:42.860Z,40.3
2023-05-24T13:49:09.437Z,43
2023-05-24T13:51:36.001Z,41
2023-05-24T13:54:02.544Z,41.3
2023-05-24T13:56:29.140Z,41.8
2023-05-24T13:58:55.758Z,42
2023-05-24T14:01:22.401Z,41.8
2023-05-24T14:03:47.542Z,40.8
2023-05-24T14:06:13.748Z,43
2023-05-24T14:08:40.369Z,40.7
2023-05-24T14:11:07.091Z,36.8
2023-05-24T14:13:33.646Z,37.6
2023-05-24T14:16:00.242Z,37.6
2023-05-24T14:18:26.976Z,34.3
2023-05-24T14:20:53.523Z,34.2
2023-05-24T14:23:20.144Z,36.1
2023-05-24T14:25:46.729Z,37.5
2023-05-24T14:28:13.393Z,38.7
2023-05-24T14:30:39.984Z,37.4
2023-05-24T14:33:06.599Z,36.7
2023-05-24T14:35:33.232Z,34.7
2023-05-24T14:37:59.851Z,35.8
2023-05-24T14:40:26.580Z,33.2
2023-05-24T14:42:53.093Z,33.9
2023-05-24T14:45:19.711Z,35.7
2023-05-24T14:47:44.846Z,36.4
2023-05-24T14:50:11.522Z,37.7
2023-05-24T14:52:38.078Z,36.8
2023-05-24T14:55:04.723Z,38.3
2023-05-24T14:57:31.334Z,37.7
2023-05-24T14:59:58.087Z,37.9
2023-05-24T15:02:24.635Z,39.8
2023-05-24T15:04:51.275Z,39.3
2023-05-24T15:07:17.870Z,39.4
2023-05-24T15:09:44.448Z,38.6
2023-05-24T15:12:11.093Z,38.4
2023-05-24T15:14:37.678Z,40.6
2023-05-24T15:17:04.296Z,41.7
2023-05-24T15:19:30.929Z,43
2023-05-24T15:21:56.069Z,43.5
2023-05-24T15:24:22.680Z,44.8
2023-05-24T15:26:49.295Z,43.7
2023-05-24T15:29:15.919Z,43.4
2023-05-24T15:31:42.538Z,43.7
2023-05-24T15:34:09.205Z,42.9
2023-05-24T15:36:35.783Z,45.2
2023-05-24T15:39:02.413Z,43.5
2023-05-24T15:41:29.072Z,43.6
2023-05-24T15:43:55.306Z,43.9
2023-05-24T15:46:21.931Z,43.6
2023-05-24T15:48:48.607Z,41.9
2023-05-24T15:51:15.169Z,42.4
2023-05-24T15:53:40.301Z,42.8
2023-05-24T15:56:06.943Z,42.3
2023-05-24T15:58:33.543Z,43
2023-05-24T16:01:00.175Z,43.3
2023-05-24T16:03:26.777Z,42.7
2023-05-24T16:05:53.394Z,42.6
2023-05-24T16:08:20.015Z,43
2023-05-24T16:10:46.706Z,42.9
2023-05-24T16:13:13.270Z,43.7
2023-05-24T16:15:39.988Z,44.1
2023-05-24T16:18:06.603Z,41.6
2023-05-24T16:20:33.133Z,41.4
2023-05-24T16:22:59.758Z,41.2
2023-05-24T16:25:24.881Z,43.1
2023-05-24T16:27:51.495Z,40.8
2023-05-24T16:30:18.126Z,42.5
2023-05-24T16:32:44.762Z,40.4
2023-05-24T16:35:11.374Z,41.4
2023-05-24T16:37:37.993Z,42.8
2023-05-24T16:40:04.612Z,43
2023-05-24T16:42:31.231Z,42.5
2023-05-24T16:44:57.857Z,43.8
2023-05-24T16:47:24.558Z,44.1
2023-05-24T16:49:51.103Z,44.1
2023-05-24T16:52:17.791Z,44.2
2023-05-24T16:54:44.374Z,46
2023-05-24T16:57:10.588Z,46.3
2023-05-24T16:59:37.254Z,46.5
2023-05-24T17:02:03.829Z,45.5
2023-05-24T17:04:30.458Z,45.2
2023-05-24T17:06:57.067Z,45.9
2023-05-24T17:09:23.727Z,46.1
2023-05-24T17:11:50.321Z,46.6
2023-05-24T17:14:16.945Z,46
2023-05-24T17:16:43.573Z,46.7
2023-05-24T17:19:10.189Z,46.8
2023-05-24T17:21:36.821Z,47.2
2023-05-24T17:24:03.449Z,48
2023-05-24T17:26:30.096Z,47.8
2023-05-24T17:28:56.682Z,47.5
2023-05-24T17:31:22.933Z,46.8
2023-05-24T17:33:49.527Z,47.2
2023-05-24T17:36:16.159Z,47
2023-05-24T17:38:42.775Z,46.8
2023-05-24T17:41:09.456Z,48.1
2023-05-24T17:46:02.640Z,48.4
2023-05-24T17:48:29.254Z,49.9
2023-05-24T17:50:55.884Z,48.5
2023-05-24T17:53:22.498Z,49.2
2023-05-24T17:55:49.131Z,47.7
2023-05-24T18:00:42.371Z,46.3
2023-05-24T18:03:08.999Z,47.3
2023-05-24T18:05:35.217Z,47.5
2023-05-24T18:08:01.850Z,47.2
2023-05-24T18:10:28.091Z,48
2023-05-24T18:12:54.706Z,50.6
2023-05-24T18:15:21.329Z,50
2023-05-24T18:17:47.977Z,51
2023-05-24T18:20:14.563Z,50.1
2023-05-24T18:22:41.233Z,49.9
2023-05-24T18:25:07.811Z,49.6
2023-05-24T18:27:34.441Z,46
2023-05-24T18:30:01.067Z,46.8
2023-05-24T18:37:20.938Z,44.6
2023-05-24T18:39:47.552Z,46.4
2023-05-24T18:42:12.692Z,47.7
2023-05-24T18:44:39.326Z,46.9
2023-05-24T18:49:31.129Z,48.7
2023-05-24T18:51:57.693Z,50
2023-05-24T18:54:24.316Z,49.4
2023-05-24T18:59:17.580Z,52
2023-05-24T19:01:44.190Z,52.1
2023-05-24T19:04:10.812Z,50.8
2023-05-24T19:06:37.412Z,53.2
2023-05-24T19:09:04.060Z,52.2
2023-05-24T19:13:57.297Z,51.5
2023-05-24T19:16:23.902Z,53.8
2023-05-24T19:18:49.114Z,54.1
2023-05-24T19:21:14.164Z,53.8
2023-05-24T19:23:40.806Z,55.7
2023-05-24T19:26:07.442Z,58.3
2023-05-24T19:28:34.096Z,59.6
2023-05-24T19:33:27.355Z,60
2023-05-24T19:35:53.904Z,62.7
2023-05-24T19:38:20.542Z,63.1
2023-05-24T19:43:13.775Z,64.7
2023-05-24T19:45:40.416Z,64.3
2023-05-24T19:48:07.039Z,63.5
2023-05-24T19:50:33.643Z,64.4
2023-05-24T19:53:00.274Z,64.2
2023-05-24T19:55:26.886Z,63.5
2023-05-24T19:57:53.514Z,63.8
2023-05-24T20:00:20.132Z,65.8
2023-05-24T20:02:45.247Z,66.1
2023-05-24T20:05:11.878Z,66.5
2023-05-24T20:07:38.517Z,67.1
2023-05-24T20:10:05.155Z,67.9
2023-05-24T20:12:31.755Z,68.3
2023-05-24T20:14:58.374Z,68.6
2023-05-24T20:17:25.041Z,67.3
2023-05-24T20:19:51.608Z,68.4
2023-05-24T20:22:18.306Z,69
2023-05-24T20:27:09.992Z,66.5
2023-05-24T20:29:35.117Z,66
2023-05-24T20:32:01.738Z,65.8
2023-05-24T20:34:28.398Z,65.4
2023-05-24T20:41:48.217Z,69
2023-05-24T20:44:14.861Z,70
2023-05-24T20:46:41.480Z,68.8
2023-05-24T20:49:08.095Z,70
2023-05-24T20:51:34.722Z,69.4
2023-05-24T20:56:27.972Z,68.8
2023-05-24T20:58:54.609Z,67.9
2023-05-24T21:01:21.211Z,69
2023-05-24T21:03:46.401Z,69.5
2023-05-24T21:06:12.964Z,68.5
2023-05-24T21:08:39.591Z,69
2023-05-24T21:11:06.222Z,68.5
2023-05-24T21:13:32.828Z,68.3
2023-05-24T21:15:59.482Z,69.2
2023-05-24T21:18:26.080Z,69.5
2023-05-24T21:20:52.713Z,67.7
2023-05-24T21:23:19.372Z,70.5
2023-05-24T21:25:45.936Z,70.9
2023-05-24T21:28:12.597Z,71.1
2023-05-24T21:30:39.169Z,70.8
2023-05-24T21:33:04.360Z,69.5
2023-05-24T21:35:30.946Z,71.4
2023-05-24T21:37:56.061Z,69.3
2023-05-24T21:40:22.716Z,68.2
2023-05-24T21:42:49.357Z,70
2023-05-24T21:45:15.948Z,70.8
2023-05-24T21:50:09.166Z,72.7
2023-05-24T21:52:35.790Z,71.5
2023-05-24T21:55:02.452Z,70.2
2023-05-24T21:57:29.128Z,69.4
2023-05-24T21:59:55.660Z,66.8
2023-05-24T22:02:22.265Z,66
2023-05-24T22:04:48.891Z,66.4
2023-05-24T22:09:42.136Z,66.7
2023-05-24T22:12:07.286Z,66.9
2023-05-24T22:14:33.902Z,66.6
2023-05-24T22:17:00.526Z,66.4
2023-05-24T22:19:27.136Z,66.8
2023-05-24T22:24:18.877Z,67.2
2023-05-24T22:26:45.508Z,69.2
2023-05-24T22:29:12.126Z,66.4
2023-05-24T22:31:38.748Z,69.3
2023-05-24T22:34:05.493Z,66.8
2023-05-24T22:38:58.635Z,68.7
2023-05-24T22:41:25.245Z,70.4
2023-05-24T22:43:51.868Z,71.8
2023-05-24T22:46:18.504Z,71.7
2023-05-24T22:48:45.133Z,72.2
2023-05-24T22:51:11.738Z,72.7
2023-05-24T22:53:36.910Z,74.7
2023-05-24T22:58:30.155Z,74.2
2023-05-24T23:00:56.717Z,74.1
2023-05-24T23:03:23.496Z,74.8
2023-05-24T23:08:16.605Z,74.2
2023-05-24T23:10:43.239Z,74.9
2023-05-24T23:13:09.857Z,74.9
2023-05-24T23:15:36.448Z,75.6
2023-05-24T23:18:03.092Z,75.5
2023-05-24T23:20:29.740Z,75.7
2023-05-24T23:22:56.334Z,75.7
2023-05-24T23:25:21.472Z,76
2023-05-24T23:27:48.079Z,75.5
2023-05-24T23:30:14.714Z,76.4
2023-05-24T23:32:41.339Z,75.9
2023-05-24T23:37:34.576Z,75.6
2023-05-24T23:42:27.822Z,76.6
2023-05-24T23:44:54.452Z,77.1
2023-05-24T23:47:21.087Z,75.9
2023-05-24T23:52:14.312Z,76.1
2023-05-24T23:54:40.999Z,76.5
2023-05-24T23:57:07.633Z,75.9
2023-05-24T23:59:32.684Z,75.7
